createdAt,value
2024-04-23T00:03:47.952Z,99697.00
2024-04-23T00:07:49.489Z,99696.63
2024-04-23T00:11:51.808Z,99708.34
2024-04-23T00:15:53.336Z,99696.53
2024-04-23T00:19:54.835Z,99701.66
2024-04-23T00:23:56.379Z,99698.06
2024-04-23T00:27:58.098Z,99704.00
2024-04-23T00:31:59.815Z,99705.56
2024-04-23T00:36:01.426Z,99704.81
2024-04-23T00:40:03.070Z,99698.31
2024-04-23T00:44:04.798Z,99701.06
2024-04-23T00:48:07.321Z,99702.97
2024-04-23T00:52:08.899Z,99686.44
2024-04-23T00:56:12.419Z,99689.44
2024-04-23T01:00:14.230Z,99695.47
2024-04-23T01:04:15.902Z,99681.56
2024-04-23T01:08:17.503Z,99685.22
2024-04-23T01:12:19.108Z,99688.81
2024-04-23T01:16:23.473Z,99687.19
2024-04-23T01:20:25.412Z,99685.25
2024-04-23T01:24:32.141Z,99678.75
2024-04-23T01:28:33.848Z,99678.72
2024-04-23T01:32:38.102Z,99687.25
2024-04-23T01:36:39.704Z,99687.06
2024-04-23T01:40:42.143Z,99672.97
2024-04-23T01:44:44.339Z,99664.84
2024-04-23T01:48:45.924Z,99662.91
2024-04-23T01:52:47.473Z,99665.50
2024-04-23T01:56:49.541Z,99664.69
2024-04-23T02:00:53.490Z,99657.41
2024-04-23T02:04:56.259Z,99660.56
2024-04-23T02:08:59.805Z,99647.63
2024-04-23T02:13:06.052Z,99649.03
2024-04-23T02:17:07.835Z,99642.50
2024-04-23T02:21:09.510Z,99652.53
2024-04-23T02:25:10.976Z,99642.91
2024-04-23T02:29:12.495Z,99649.03
2024-04-23T02:33:14.090Z,99643.31
2024-04-23T02:37:15.632Z,99646.00
2024-04-23T02:41:17.195Z,99640.94
2024-04-23T02:45:18.852Z,99649.25
2024-04-23T02:49:20.435Z,99638.88
2024-04-23T02:53:21.935Z,99638.16
2024-04-23T02:57:23.424Z,99633.91
2024-04-23T03:01:24.909Z,99633.91
2024-04-23T03:05:26.428Z,99633.63
2024-04-23T03:09:28.044Z,99629.13
2024-04-23T03:13:29.578Z,99633.63
2024-04-23T03:17:31.202Z,99625.59
2024-04-23T03:21:32.754Z,99629.94
2024-04-23T03:25:34.278Z,99634.75
2024-04-23T03:29:35.936Z,99640.16
2024-04-23T03:33:37.495Z,99635.69
2024-04-23T03:37:39.106Z,99630.03
2024-04-23T03:41:40.684Z,99622.47
2024-04-23T03:45:42.165Z,99619.84
2024-04-23T03:49:43.699Z,99618.16
2024-04-23T03:53:45.286Z,99613.22
2024-04-23T03:57:46.787Z,99607.28
2024-04-23T04:01:48.447Z,99612.22
2024-04-23T04:05:49.990Z,99610.50
2024-04-23T04:09:51.495Z,99607.16
2024-04-23T04:13:52.992Z,99603.56
2024-04-23T04:17:54.640Z,99602.22
2024-04-23T04:22:00.731Z,99607.28
2024-04-23T04:26:02.496Z,99614.50
2024-04-23T04:30:04.648Z,99609.16
2024-04-23T04:34:06.488Z,99611.59
2024-04-23T04:38:08.008Z,99601.69
2024-04-23T04:42:09.536Z,99602.22
2024-04-23T04:46:11.125Z,99604.13
2024-04-23T04:50:12.684Z,99608.56
2024-04-23T04:54:14.180Z,99609.78
2024-04-23T04:58:15.856Z,99598.16
2024-04-23T05:02:17.487Z,99603.97
2024-04-23T05:10:43.635Z,99600.22
2024-04-23T05:14:45.190Z,99603.94
2024-04-23T05:18:46.837Z,99605.03
2024-04-23T05:22:48.410Z,99604.16
2024-04-23T05:26:49.915Z,99596.84
2024-04-23T05:30:51.441Z,99597.75
2024-04-23T05:34:52.935Z,99596.63
2024-04-23T05:38:54.819Z,99598.69
2024-04-23T05:42:56.319Z,99603.22
2024-04-23T05:46:57.922Z,99591.97
2024-04-23T05:51:37.126Z,99591.28
2024-04-23T05:55:40.865Z,99597.50
2024-04-23T05:59:42.862Z,99589.31
2024-04-23T06:03:44.342Z,99586.91
2024-04-23T06:07:46.185Z,99594.78
2024-04-23T06:11:47.825Z,99590.50
2024-04-23T06:15:49.421Z,99596.03
2024-04-23T06:19:51.569Z,99586.44
2024-04-23T06:23:53.067Z,99593.59
2024-04-23T06:27:54.559Z,99599.50
2024-04-23T06:31:56.123Z,99591.06
2024-04-23T06:35:57.677Z,99592.22
2024-04-23T06:40:05.060Z,99584.53
2024-04-23T06:44:06.664Z,99586.16
2024-04-23T06:48:08.506Z,99574.41
2024-04-23T06:52:10.027Z,99578.09
2024-04-23T06:56:11.538Z,99575.22
2024-04-23T07:00:13.304Z,99582.31
2024-04-23T07:04:16.500Z,99573.09
2024-04-23T07:08:17.995Z,99567.78
2024-04-23T07:12:19.481Z,99569.66
2024-04-23T07:16:20.947Z,99566.16
2024-04-23T07:20:22.493Z,99559.16
2024-04-23T07:24:24.069Z,99558.97
2024-04-23T07:28:25.675Z,99564.28
2024-04-23T07:32:27.335Z,99555.28
2024-04-23T07:36:28.910Z,99551.81
2024-04-23T07:40:30.459Z,99560.91
2024-04-23T07:44:32.009Z,99549.00
2024-04-23T07:48:33.593Z,99544.88
2024-04-23T07:52:35.278Z,99543.72
2024-04-23T07:56:36.757Z,99545.75
2024-04-23T08:00:38.278Z,99549.53
2024-04-23T08:04:39.871Z,99534.91
2024-04-23T08:08:41.406Z,99541.66
2024-04-23T08:12:42.966Z,99526.91
2024-04-23T08:16:44.938Z,99533.88
2024-04-23T08:20:46.451Z,99521.78
2024-04-23T08:24:47.964Z,99521.19
2024-04-23T08:28:50.274Z,99517.41
2024-04-23T08:32:51.909Z,99521.63
2024-04-23T08:36:53.551Z,99517.88
2024-04-23T08:40:55.527Z,99511.81
2024-04-23T08:44:59.583Z,99506.59
2024-04-23T08:49:01.922Z,99503.69
2024-04-23T08:53:04.207Z,99495.31
2024-04-23T08:57:08.146Z,99495.97
2024-04-23T09:01:13.670Z,99493.59
2024-04-23T09:05:16.202Z,99497.41
2024-04-23T09:09:18.055Z,99491.06
2024-04-23T09:13:19.552Z,99485.75
2024-04-23T09:17:21.180Z,99479.75
2024-04-23T09:21:23.797Z,99482.25
2024-04-23T09:25:25.910Z,99481.84
2024-04-23T09:29:30.444Z,99479.28
2024-04-23T09:33:32.032Z,99471.25
2024-04-23T09:37:33.580Z,99472.91
2024-04-23T09:41:35.892Z,99465.03
2024-04-23T09:45:38.060Z,99453.34
2024-04-23T09:49:40.032Z,99453.56
2024-04-23T09:53:41.652Z,99447.44
2024-04-23T09:57:43.909Z,99437.00
2024-04-23T10:01:48.805Z,99438.44
2024-04-23T10:05:51.814Z,99425.00
2024-04-23T10:09:53.512Z,99416.47
2024-04-23T10:14:03.107Z,99420.63
2024-04-23T10:18:21.601Z,99418.63
2024-04-23T10:22:24.506Z,99399.59
2024-04-23T10:26:26.458Z,99405.88
2024-04-23T10:30:28.574Z,99390.88
2024-04-23T10:34:31.196Z,99379.38
2024-04-23T10:38:35.002Z,99377.34
2024-04-23T10:42:36.492Z,99374.34
2024-04-23T10:46:41.962Z,99368.34
2024-04-23T10:50:53.937Z,99369.09
2024-04-23T10:54:55.536Z,99364.28
2024-04-23T10:59:13.612Z,99355.97
2024-04-23T11:03:19.384Z,99344.69
2024-04-23T11:07:25.714Z,99338.72
2024-04-23T11:11:37.086Z,99338.00
2024-04-23T11:15:38.576Z,99339.69
2024-04-23T11:19:47.515Z,99333.38
2024-04-23T11:23:50.960Z,99322.00
2024-04-23T11:27:52.534Z,99320.38
2024-04-23T11:31:54.247Z,99315.94
2024-04-23T11:35:55.852Z,99305.22
2024-04-23T11:39:58.900Z,99309.34
2024-04-23T11:44:00.413Z,99289.97
2024-04-23T11:48:04.970Z,99282.50
2024-04-23T11:52:08.342Z,99282.00
2024-04-23T11:56:10.674Z,99288.47
2024-04-23T12:00:12.951Z,99273.22
2024-04-23T12:04:16.074Z,99265.56
2024-04-23T12:08:17.937Z,99248.09
2024-04-23T12:12:20.395Z,99239.63
2024-04-23T12:16:21.952Z,99236.06
2024-04-23T12:20:24.861Z,99245.84
2024-04-23T12:24:29.365Z,99240.88
2024-04-23T12:28:32.397Z,99231.25
2024-04-23T12:32:34.004Z,99226.09
2024-04-23T12:36:36.855Z,99234.09
2024-04-23T12:40:43.441Z,99216.84
2024-04-23T12:44:44.989Z,99211.66
2024-04-23T12:48:47.475Z,99217.69
2024-04-23T12:52:49.458Z,99215.59
2024-04-23T12:56:54.278Z,99217.06
2024-04-23T13:00:56.292Z,99202.47
2024-04-23T13:04:57.930Z,99193.59
2024-04-23T13:08:59.448Z,99180.34
2024-04-23T13:13:01.022Z,99177.31
2024-04-23T13:17:02.786Z,99170.75
2024-04-23T13:21:05.025Z,99156.91
2024-04-23T13:25:06.838Z,99162.19
2024-04-23T13:29:08.693Z,99161.28
2024-04-23T13:33:10.284Z,99166.09
2024-04-23T13:37:11.928Z,99160.88
2024-04-23T13:41:14.066Z,99145.19
2024-04-23T13:45:15.910Z,99143.59
2024-04-23T13:49:17.520Z,99131.84
2024-04-23T13:53:18.997Z,99132.66
2024-04-23T13:57:20.534Z,99139.16
2024-04-23T14:01:22.003Z,99125.84
2024-04-23T14:05:23.467Z,99126.47
2024-04-23T14:09:25.023Z,99127.81
2024-04-23T14:13:26.531Z,99120.41
2024-04-23T14:17:28.040Z,99102.31
2024-04-23T14:21:29.586Z,99103.97
2024-04-23T14:25:31.182Z,99087.75
2024-04-23T14:29:32.803Z,99085.34
2024-04-23T14:33:34.521Z,99086.28
2024-04-23T14:37:36.068Z,99082.88
2024-04-23T14:41:37.567Z,99081.88
2024-04-23T14:45:39.429Z,99080.78
2024-04-23T14:49:40.969Z,99077.28
2024-04-23T14:53:42.490Z,99067.41
2024-04-23T14:57:44.041Z,99063.91
2024-04-23T15:01:45.587Z,99051.81
2024-04-23T15:05:47.149Z,99050.81
2024-04-23T15:09:48.794Z,99053.81
2024-04-23T15:13:50.274Z,99048.22
2024-04-23T15:17:52.149Z,99048.25
2024-04-23T15:21:53.760Z,99043.72
2024-04-23T15:25:58.623Z,99041.69
2024-04-23T15:30:00.231Z,99036.50
2024-04-23T15:34:01.796Z,99039.03
2024-04-23T15:38:03.536Z,99029.47
2024-04-23T15:42:05.116Z,99034.44
2024-04-23T15:46:14.724Z,99035.66
2024-04-23T15:50:16.526Z,99017.66
2024-04-23T15:54:19.048Z,99019.22
2024-04-23T15:58:20.539Z,99016.44
2024-04-23T16:02:22.174Z,99010.06
2024-04-23T16:06:23.862Z,99009.84
2024-04-23T16:10:25.696Z,99009.63
2024-04-23T16:14:27.177Z,99011.75
2024-04-23T16:18:29.459Z,98999.47
2024-04-23T16:22:31.430Z,98996.13
2024-04-23T16:26:33.003Z,98998.63
2024-04-23T16:30:34.453Z,98992.69
2024-04-23T16:34:36.023Z,98977.66
2024-04-23T16:38:38.560Z,98990.94
2024-04-23T16:42:43.287Z,98987.38
2024-04-23T16:46:44.804Z,98982.75
2024-04-23T16:50:52.680Z,98981.19
2024-04-23T16:54:54.173Z,98981.19
2024-04-23T16:58:55.684Z,98978.97
2024-04-23T17:02:57.186Z,98979.91
2024-04-23T17:06:58.679Z,98979.75
2024-04-23T17:11:01.534Z,98980.00
2024-04-23T17:15:03.660Z,98969.13
2024-04-23T17:19:05.200Z,98964.13
2024-04-23T17:23:06.786Z,98964.13
2024-04-23T17:27:08.648Z,98965.88
2024-04-23T17:31:10.520Z,98953.81
2024-04-23T17:35:12.059Z,98949.91
2024-04-23T17:39:13.646Z,98943.53
2024-04-23T17:43:15.991Z,98940.66
2024-04-23T17:47:17.586Z,98944.91
2024-04-23T17:51:19.513Z,98940.19
2024-04-23T17:55:21.120Z,98932.13
2024-04-23T17:59:22.613Z,98936.81
2024-04-23T18:03:24.080Z,98928.13
2024-04-23T18:07:25.549Z,98924.44
2024-04-23T18:11:27.282Z,98927.06
2024-04-23T18:15:28.879Z,98920.88
2024-04-23T18:19:30.444Z,98927.69
2024-04-23T18:23:35.078Z,98927.31
2024-04-23T18:27:36.693Z,98926.97
2024-04-23T18:31:38.310Z,98921.97
2024-04-23T18:35:39.763Z,98924.25
2024-04-23T18:39:41.324Z,98924.56
2024-04-23T18:43:42.987Z,98933.84
2024-04-23T18:47:44.610Z,98923.91
2024-04-23T18:51:46.747Z,98915.66
2024-04-23T18:55:48.381Z,98922.03
2024-04-23T18:59:49.870Z,98915.63
2024-04-23T19:03:51.358Z,98918.31
2024-04-23T19:07:52.901Z,98913.50
2024-04-23T19:11:54.548Z,98909.94
2024-04-23T19:15:56.103Z,98914.16
2024-04-23T19:19:57.663Z,98900.00
2024-04-23T19:23:59.241Z,98900.88
2024-04-23T19:28:00.720Z,98900.28
2024-04-23T19:32:02.329Z,98902.25
2024-04-23T19:36:04.290Z,98896.22
2024-04-23T19:40:06.488Z,98888.53
2024-04-23T19:44:08.957Z,98891.94
2024-04-23T19:48:10.904Z,98879.03
2024-04-23T19:52:12.578Z,98886.56
2024-04-23T19:56:14.206Z,98885.97
2024-04-23T20:00:16.141Z,98881.59
2024-04-23T20:04:17.904Z,98871.19
2024-04-23T20:08:19.603Z,98866.28
2024-04-23T20:12:21.206Z,98865.69
2024-04-23T20:16:22.766Z,98873.44
2024-04-23T20:20:24.295Z,98864.75
2024-04-23T20:24:25.797Z,98863.94
2024-04-23T20:28:27.966Z,98858.97
2024-04-23T20:32:29.502Z,98859.38
2024-04-23T20:36:31.024Z,98854.72
2024-04-23T20:40:32.542Z,98849.94
2024-04-23T20:44:34.184Z,98851.88
2024-04-23T20:48:36.205Z,98840.25
2024-04-23T20:52:40.581Z,98835.28
2024-04-23T20:56:43.558Z,98836.31
2024-04-23T21:00:45.169Z,98830.75
2024-04-23T21:04:46.810Z,98838.13
2024-04-23T21:08:48.379Z,98833.75
2024-04-23T21:12:49.871Z,98833.75
2024-04-23T21:16:51.503Z,98838.56
2024-04-23T21:20:57.501Z,98834.19
2024-04-23T21:24:59.046Z,98829.38
2024-04-23T21:29:00.634Z,98821.25
2024-04-23T21:33:02.311Z,98807.09
2024-04-23T21:37:03.983Z,98787.97
2024-04-23T21:41:10.693Z,98788.28
2024-04-23T21:45:12.193Z,98814.31
2024-04-23T21:49:14.186Z,98814.72
2024-04-23T21:53:15.705Z,98810.38
2024-04-23T21:57:17.277Z,98800.41
2024-04-23T22:01:18.930Z,98796.50
2024-04-23T22:05:21.214Z,98788.66
2024-04-23T22:09:22.875Z,98788.66
2024-04-23T22:13:24.376Z,98786.53
2024-04-23T22:17:25.961Z,98788.66
2024-04-23T22:21:27.647Z,98779.00
2024-04-23T22:25:29.604Z,98782.00
2024-04-23T22:29:31.083Z,98779.97
2024-04-23T22:33:33.119Z,98775.84
2024-04-23T22:37:34.627Z,98782.56
2024-04-23T22:41:36.181Z,98770.13
2024-04-23T22:45:37.671Z,98765.19
2024-04-23T22:49:39.643Z,98762.75
2024-04-23T22:53:41.164Z,98750.50
2024-04-23T22:57:42.689Z,98747.38
2024-04-23T23:01:44.205Z,98741.84
2024-04-23T23:05:45.708Z,98750.44
2024-04-23T23:09:47.202Z,98740.69
2024-04-23T23:13:48.689Z,98731.72
2024-04-23T23:17:50.365Z,98721.72
2024-04-23T23:21:51.919Z,98720.06
2024-04-23T23:25:53.459Z,98715.25
2024-04-23T23:29:54.952Z,98715.03
2024-04-23T23:33:56.516Z,98703.03
2024-04-23T23:37:58.105Z,98697.94
2024-04-23T23:41:59.698Z,98691.22
2024-04-23T23:46:01.210Z,98680.50
2024-04-23T23:50:02.961Z,98665.84
2024-04-23T23:54:04.716Z,98668.19
2024-04-23T23:58:06.180Z,98656.16
